• Join FlightAware (Why Join?)
  • Login
  • US Flag 
03:03PM EDT


 

Airport Tracker/Info


-or-


 

Live Flight TrackerFlight Track Log ✈ PDT4420 ✈ 30-Jun-2013 ✈ KPHF - KPHL

Flight Track Log - Related Links

Times and Time Zones

All times are in EDT time to prevent confusion due to time zone crossing. See the PDT4420 flight status page for this flight to view local times or setup timezone preferences in your user account.

Time Position Orientation Groundspeed Altitude Reporting Facility
EDT Latitude Longitude Course Direction KTS MPH feet Rate Location/Type
09:23AM 37.1247 -76.5036 58° Northeast 170 196 500  Level Washington Center
09:24AM 37.1078 -76.5372 238° Southwest 121 139 2,100 1,380 Climbing Washington Center
09:25AM 37.1139 -76.5789 280° West 147 169 3,100 960 Climbing Washington Center
09:26AM 37.2687 -76.3209 44° Northeast  Level FlightAware Approximate
09:26AM 37.1475 -76.5350 46° Northeast 149 171 4,100  Level Washington Center
09:27AM 37.3169 -76.2631 44° Northeast  Level FlightAware Approximate
09:27AM 37.1750 -76.4964 48° Northeast 179 206 5,100  Level Washington Center
09:28AM 37.3651 -76.2052 44° Northeast  Level FlightAware Approximate
09:28AM 37.2106 -76.4628 37° Northeast 179 206 6,300  Level Washington Center
09:29AM 37.4185 -76.1630 58° Northeast  Level FlightAware Approximate
09:29AM 37.2422 -76.4214 46° Northeast 173 199 7,400  Level Washington Center
09:30AM 37.2736 -76.3853 42° Northeast 168 193 8,400 1,020 Climbing Washington Center
09:31AM 37.3075 -76.3411 46° Northeast 168 193 9,500 900 Climbing Washington Center
09:32AM 37.3431 -76.2944 46° Northeast 175 201 10,300 840 Climbing Washington Center
09:33AM 37.3789 -76.2425 49° Northeast 182 209 11,300 900 Climbing Washington Center
09:34AM 37.4147 -76.1906 49° Northeast 188 216 12,200 840 Climbing Washington Center
09:35AM 37.4608 -76.1386 42° Northeast 188 216 13,100 840 Climbing Washington Center
09:36AM 37.5028 -76.0892 43° Northeast 193 222 13,900 780 Climbing Washington Center
09:37AM 37.5444 -76.0372 45° Northeast 198 228 14,700 780 Climbing Washington Center
09:38AM 37.5886 -75.9903 40° Northeast 198 228 15,500 780 Climbing Washington Center
09:39AM 37.6303 -75.9406 43° Northeast 198 228 16,300 720 Climbing Washington Center
09:40AM 37.6744 -75.8856 45° Northeast 204 235 17,000 300 Climbing Washington Center
09:41AM 37.7203 -75.8333 42° Northeast 209 241 17,000  Level Washington Center
09:42AM 37.7725 -75.7808 38° Northeast 220 253 17,000  Level Washington Center
09:43AM 37.8269 -75.7181 42° Northeast 240 276 17,000  Level Washington Center
09:44AM 37.8792 -75.6575 42° Northeast 245 282 17,000 -60 Level Washington Center
09:45AM 37.9167 -75.5867 56° Northeast 245 282 16,900  Descending Washington Center
09:46AM 37.9583 -75.5364 44° Northeast 250 288 17,000  Climbing Washington Center
09:47AM 38.0292 -75.4864 29° Northeast 244 281 17,000  Level Washington Center
09:48AM 38.0917 -75.4519 23° Northeast 238 274 17,000  Level Washington Center
09:49AM 38.1522 -75.4147 26° Northeast 233 268 17,000  Level Washington Center
09:50AM 38.2147 -75.3750 27° Northeast 238 274 17,000 -540 Level Washington Center
09:51AM 38.2792 -75.3353 26° Northeast 243 280 16,000 -900 Descending Washington Center
09:52AM 38.3353 -75.2900 32° Northeast 243 280 15,200 -960 Descending Washington Center
09:53AM 38.3978 -75.2472 28° Northeast 250 288 14,200 -1,080 Descending Washington Center
09:54AM 38.4622 -75.2047 27° Northeast 250 288 13,100 -1,140 Descending Washington Center
09:55AM 38.5267 -75.1644 26° Northeast 250 288 12,000 -1,080 Descending Washington Center
09:56AM 38.5786 -75.1031 43° Northeast 250 288 11,000 -540 Descending Washington Center
09:57AM 38.6306 -75.0522 37° Northeast 245 282 11,000  Level Washington Center
09:58AM 38.6950 -75.0172 23° Northeast 245 282 11,000  Level Washington Center
09:59AM 38.7617 -75.0167 360° North 232 267 11,000 -360 Level Washington Center
10:00AM 38.8306 -75.0161 360° North 237 273 10,300 -900 Descending Washington Center
10:01AM 38.9014 -75.0075 North 242 278 9,300 -1,020 Descending Washington Center
10:02AM 38.9703 -75.0042 North 247 284 8,300 -660 Descending Washington Center
10:03AM 39.0389 -74.9983 North 247 284 8,000 -600 Descending Washington Center
10:04AM 39.1036 -74.9953 North 242 278 7,200 -900 Descending Washington Center
10:05AM 39.1722 -74.9919 North 237 273 6,200 -1,020 Descending Washington Center
10:06AM 39.2389 -74.9858 North 237 273 5,200 -1,020 Descending Washington Center
10:07AM 39.3056 -74.9961 353° North 232 267 4,200 -600 Descending Washington Center
10:08AM 39.3622 -75.0358 332° Northwest 227 261 4,000 -120 Descending Washington Center
10:09AM 39.4228 -75.0731 335° Northwest 227 261 4,000  Level Washington Center
10:10AM 39.4792 -75.1075 335° Northwest 227 261 4,000  Level Washington Center
10:13AM 39.6333 -75.2000 335° Northwest 233 268 4,000  Level Philadelphia TRACON
10:14AM 39.7000 -75.2333 339° North 234 269 4,000  Level Philadelphia TRACON
10:15AM 39.7500 -75.2500 346° North 234 269 4,000  Level Philadelphia TRACON
10:16AM 39.8167 -75.2833 339° North 235 270 4,000  Level Philadelphia TRACON
10:17AM 39.8833 -75.3167 339° North 227 261 4,000  Level Philadelphia TRACON
10:18AM 39.9333 -75.3333 346° North 197 227 4,000  Level Philadelphia TRACON
10:19AM 39.9667 -75.3667 323° Northwest 191 220 4,000  Level Philadelphia TRACON
10:20AM 40.0167 -75.4000 333° Northwest 195 224 4,000 -120 Level Philadelphia TRACON
10:21AM 40.0667 -75.4333 333° Northwest 203 234 3,800 -540 Descending Philadelphia TRACON
10:22AM 40.0833 -75.3833 66° East 187 215 3,000 -420 Descending Philadelphia TRACON
10:23AM 40.0500 -75.3333 131° Southeast 175 201 3,000 -300 Level Philadelphia TRACON
10:24AM 40.0167 -75.3000 143° Southeast 164 189 2,500 -660 Descending Philadelphia TRACON
10:25AM 39.9667 -75.2833 166° South 157 181 1,700 -780 Descending Philadelphia TRACON
10:26AM 39.9333 -75.2667 159° South 136 157 1,000 -660 Descending Philadelphia TRACON
10:27AM 39.9000 -75.2500 159° South 113 130 400 -600 Descending Philadelphia TRACON